Overview Statistics Trail Chart Weather Telemetry Raw packets
 

This is the latest recevied weather packets stored in our database for station/object KG4QXF. If no packets are shown the sender has not sent any weather packets the latest 10 day(s).

<< 64 65 66 67 68 69 70 >>
Time Temp. Humidity Pressure Rain* Wind** Luminosity Snow
1777227956 27.22° C 63% 1012.7 hPa 0 mm - - -
1777227652 26.67° C 63% 1012.8 hPa 0 mm - - -
1777227348 27.78° C 61% 1012.8 hPa 0 mm - - -
1777227045 27.22° C 64% 1012.9 hPa 0 mm - - -
1777226745 26.67° C 65% 1012.9 hPa 0 mm - - -
1777226440 27.22° C 62% 1012.9 hPa 0 mm - - -
1777226136 27.78° C 63% 1012.9 hPa 0 mm - - -
1777225832 26.11° C 67% 1013 hPa 0 mm - - -
1777225528 27.22° C 65% 1013 hPa 0 mm - - -
1777225226 26.67° C 66% 1012.9 hPa 0 mm - - -
1777224922 26.11° C 67% 1012.9 hPa 0 mm - - -
1777224620 26.11° C 67% 1012.8 hPa 0 mm - - -
1777224314 26.11° C 67% 1013 hPa 0 mm - - -
1777224010 25.56° C 69% 1012.9 hPa 0 mm - - -
1777223709 26.67° C 68% 1012.9 hPa 0 mm - - -
1777223409 25.56° C 69% 1013.2 hPa 0 mm - - -
1777223108 26.11° C 69% 1013.2 hPa 0 mm - - -
1777222804 26.11° C 66% 1013.1 hPa 0 mm - - -
1777222502 25.56° C 68% 1013 hPa 0 mm - - -
1777222199 26.67° C 68% 1012.9 hPa 0 mm - - -
1777221897 26.11° C 68% 1012.9 hPa 0 mm - - -
1777221597 26.67° C 64% 1012.9 hPa 0 mm - - -
1777221294 25.56° C 67% 1013.1 hPa 0 mm - - -
1777220990 26.11° C 66% 1013.1 hPa 0 mm - - -
1777220685 26.67° C 65% 1013 hPa 0 mm - - -

* Rain latest hour (hover to see other rain measurements)
** Current wind speed in m/s (hover to see current wind gust speed)